Time;durP1;ratioP1;P1;durP2;ratioP2;P2;SDS_P1;SDS_P2;PMS_P1;PMS_P2;Temp;Humidity;BMP_temperature;BMP_pressure;BME280_temperature;BME280_humidity;BME280_pressure;Samples;Min_cycle;Max_cycle;Signal;HPM_P1;HPM_P2
2021/11/11 09:11:52;;;;;;;29.20;14.50;;;11.00;46.50;;;;;;6252524;22;20539;-90
2021/11/11 09:14:19;;;;;;;18.20;12.67;;;11.00;47.20;;;;;;6217051;23;20462;-87
2021/11/11 09:16:51;;;;;;;26.97;13.73;;;11.10;48.90;;;;;;6215915;23;20485;-87
2021/11/11 09:19:21;;;;;;;28.77;15.47;;;11.50;49.10;;;;;;6216420;23;20908;-87
2021/11/11 09:21:53;;;;;;;32.83;14.60;;;10.90;45.10;;;;;;6215529;23;20895;-87
2021/11/11 09:24:22;;;;;;;31.47;18.83;;;10.90;46.10;;;;;;6216032;23;20429;-86
2021/11/11 09:27:02;;;;;;;22.93;14.97;;;11.20;46.90;;;;;;6217058;23;20443;-86
2021/11/11 09:29:31;;;;;;;27.63;15.57;;;11.70;50.20;;;;;;6216204;23;20424;-86
2021/11/11 09:32:04;;;;;;;32.60;15.80;;;11.40;46.90;;;;;;6216007;23;20436;-86
2021/11/11 09:34:33;;;;;;;28.13;15.90;;;11.50;45.90;;;;;;6216941;23;20486;-86
2021/11/11 09:37:16;;;;;;;24.90;14.30;;;11.40;45.00;;;;;;6216481;23;20401;-86
2021/11/11 09:39:50;;;;;;;26.03;16.50;;;11.60;47.30;;;;;;6216351;23;20417;-87
2021/11/11 09:42:32;;;;;;;25.80;16.50;;;12.10;47.20;;;;;;6215883;23;20452;-87
2021/11/11 09:45:17;;;;;;;24.50;15.30;;;12.00;44.20;;;;;;6216405;23;20416;-86
2021/11/11 09:47:47;;;;;;;25.60;13.67;;;11.40;43.60;;;;;;6218976;23;20451;-86
2021/11/11 09:50:25;;;;;;;25.20;13.40;;;11.70;49.10;;;;;;6217284;23;20757;-85
2021/11/11 09:53:09;;;;;;;25.53;15.60;;;11.70;48.60;;;;;;6215205;23;20432;-86
2021/11/11 10:01:52;;;;;;;33.33;13.73;;;12.80;49.00;;;;;;6214907;23;20403;-85
2021/11/11 10:04:30;;;;;;;28.03;15.60;;;13.20;45.50;;;;;;6215486;23;20412;-86
2021/11/11 10:07:08;;;;;;;25.80;15.63;;;12.50;42.80;;;;;;6216224;23;20396;-86
2021/11/11 10:10:00;;;;;;;26.07;15.30;;;12.40;42.90;;;;;;6216292;23;20524;-85
2021/11/11 10:12:38;;;;;;;19.80;12.97;;;12.80;44.00;;;;;;6215594;23;20467;-86
2021/11/11 10:15:14;;;;;;;22.80;12.50;;;12.70;46.70;;;;;;6215436;23;20883;-87
2021/11/11 10:17:49;;;;;;;23.20;15.87;;;13.00;47.10;;;;;;6221245;23;20388;-85
2021/11/11 10:20:34;;;;;;;30.30;16.80;;;12.60;44.00;;;;;;6218644;23;20485;-87
2021/11/11 10:23:24;;;;;;;30.47;17.90;;;12.30;45.70;;;;;;6220581;23;20497;-87
2021/11/11 10:26:16;;;;;;;30.80;16.80;;;12.60;47.80;;;;;;6227447;23;20395;-87
2021/11/11 10:28:43;;;;;;;23.23;15.10;;;12.60;45.80;;;;;;6219325;23;20388;-87
2021/11/11 10:31:17;;;;;;;26.30;15.90;;;12.90;45.00;;;;;;6219302;23;20441;-87
2021/11/11 10:34:04;;;;;;;28.93;16.63;;;13.00;44.30;;;;;;6219057;23;21003;-86
2021/11/11 10:36:43;;;;;;;28.90;15.60;;;12.80;45.50;;;;;;6220103;23;20397;-86
2021/11/11 10:39:12;;;;;;;32.93;18.30;;;12.90;44.90;;;;;;6219897;23;20376;-87
2021/11/11 10:41:40;;;;;;;25.10;16.20;;;12.70;44.10;;;;;;6220685;23;20411;-86
2021/11/11 10:44:22;;;;;;;24.50;16.67;;;11.90;47.70;;;;;;6219269;23;20470;-85
2021/11/11 10:46:53;;;;;;;31.97;15.90;;;12.10;48.00;;;;;;6221063;23;20431;-86
2021/11/11 10:52:39;;;;;;;27.47;17.20;;;12.20;46.40;;;;;;6071058;23;20469;-85
2021/11/11 10:59:09;;;;;;;26.20;14.53;;;12.50;47.40;;;;;;6012289;23;20391;-86
2021/11/11 11:01:42;;;;;;;35.03;16.50;;;13.10;48.10;;;;;;6013752;23;20474;-86
2021/11/11 11:17:34;;;;;;;31.20;15.00;;;13.40;43.80;;;;;;5115060;27;20517;-86
2021/11/11 11:20:27;;;;;;;21.43;13.43;;;14.00;44.70;;;;;;5114182;28;20968;-87
2021/11/11 11:26:21;;;;;;;36.70;18.20;;;14.00;44.00;;;;;;5116247;28;20484;-87
2021/11/11 11:29:14;;;;;;;29.83;17.97;;;13.50;43.40;;;;;;5112991;28;20518;-86
2021/11/11 11:32:04;;;;;;;28.83;17.10;;;13.40;44.00;;;;;;5111792;28;20464;-86
2021/11/11 11:37:49;;;;;;;41.37;18.10;;;13.20;44.60;;;;;;4932156;29;20645;-87
2021/11/11 11:40:17;;;;;;;29.83;18.03;;;12.50;45.80;;;;;;4932253;29;20430;-87
2021/11/11 11:42:47;;;;;;;27.83;17.60;;;12.20;47.00;;;;;;4940065;28;20489;-88
2021/11/11 11:45:16;;;;;;;28.13;17.73;;;12.50;46.80;;;;;;4933521;28;20483;-89
2021/11/11 11:50:48;;;;;;;39.20;19.07;;;12.50;46.50;;;;;;4923231;29;20486;-87
2021/11/11 11:53:24;;;;;;;37.90;18.33;;;12.70;45.70;;;;;;4912757;29;20822;-87
2021/11/11 11:56:14;;;;;;;27.90;18.40;;;12.60;45.70;;;;;;4925999;29;20580;-86
2021/11/11 11:58:44;;;;;;;30.83;19.37;;;12.10;47.10;;;;;;4917650;29;20566;-87
2021/11/11 12:01:31;;;;;;;37.57;18.73;;;12.50;46.50;;;;;;4912878;29;20482;-86
2021/11/11 12:04:05;;;;;;;35.83;19.23;;;12.10;47.10;;;;;;4911843;29;20479;-87
2021/11/11 12:07:03;;;;;;;37.13;20.60;;;12.60;46.00;;;;;;4912273;29;20465;-87
2021/11/11 12:10:19;;;;;;;42.17;22.40;;;12.00;47.10;;;;;;4958751;28;20495;-87
2021/11/11 12:40:20;;;;;;;37.57;20.43;;;13.50;44.20;;;;;;5033372;28;20421;-87
2021/11/11 12:42:54;;;;;;;34.07;20.60;;;13.00;45.50;;;;;;5034350;28;20521;-86
2021/11/11 12:46:08;;;;;;;35.63;20.07;;;13.20;45.60;;;;;;5069911;28;20911;-87
2021/11/11 12:49:44;;;;;;;36.40;20.13;;;13.40;44.50;;;;;;5095362;28;20442;-88
2021/11/11 12:52:30;;;;;;;41.73;21.27;;;13.60;44.80;;;;;;5014249;28;20474;-89
2021/11/11 12:59:14;;;;;;;34.33;21.13;;;12.80;45.10;;;;;;5009513;28;20509;-88
2021/11/11 13:02:01;;;;;;;34.00;19.97;;;13.50;46.10;;;;;;4936715;29;20449;-87
2021/11/11 13:05:28;;;;;;;29.97;14.20;;;13.70;44.80;;;;;;4936544;29;21060;-88
2021/11/11 13:11:54;;;;;;;43.50;25.13;;;13.10;45.40;;;;;;4861941;29;20581;-89
2021/11/11 15:46:19;;;;;;;21.13;12.13;;;14.50;47.80;;;;;;5075999;28;20901;-90
2021/11/11 15:57:17;;;;;;;41.37;23.10;;;15.50;46.40;;;;;;5083397;28;20403;-91
2021/11/11 16:00:12;;;;;;;30.63;18.30;;;14.80;42.90;;;;;;5079355;28;20457;-90
2021/11/11 16:03:35;;;;;;;20.00;12.10;;;14.30;45.40;;;;;;5079923;28;20403;-90
2021/11/11 16:20:56;;;;;;;60.03;34.03;;;12.80;44.30;;;;;;5019586;28;20480;-91
2021/11/11 16:24:25;;;;;;;69.70;37.80;;;12.50;45.30;;;;;;5205793;22;20470;-85
2021/11/11 16:27:14;;;;;;;;;;;;;;;;;;;;;
2021/11/11 16:30:09;;;;;;;71.07;37.93;;;11.60;47.70;;;;;;5094859;28;20452;-90
2021/11/11 16:35:41;;;;;;;61.27;31.60;;;10.70;50.20;;;;;;5059980;28;20450;-90
2021/11/11 16:44:42;;;;;;;60.13;32.33;;;11.30;48.90;;;;;;5063091;23;20489;-91
2021/11/11 16:50:45;;;;;;;61.10;30.60;;;11.60;49.30;;;;;;5086758;28;20520;-89
2021/11/11 16:53:34;;;;;;;61.90;33.57;;;11.70;48.70;;;;;;5069881;28;20839;-89
2021/11/11 16:56:27;;;;;;;83.50;42.73;;;12.00;48.10;;;;;;5074560;28;20553;-90
2021/11/11 16:59:19;;;;;;;73.23;39.23;;;12.20;47.40;;;;;;5071910;28;20575;-90
2021/11/11 17:02:44;;;;;;;73.53;37.83;;;12.00;49.30;;;;;;5103134;28;20450;-91
2021/11/11 17:06:01;;;;;;;31.93;17.30;;;12.00;50.60;;;;;;5086291;28;20450;-91
2021/11/11 17:08:44;;;;;;;47.77;28.80;;;12.60;52.50;;;;;;5058598;28;20443;-91
2021/11/11 17:21:26;;;;;;;44.43;27.60;;;13.30;51.40;;;;;;5143828;22;20555;-89
2021/11/11 17:24:49;;;;;;;47.57;23.73;;;13.60;51.00;;;;;;5038876;28;20465;-91
2021/11/11 17:54:24;;;;;;;42.53;25.37;;;11.30;47.50;;;;;;4701048;30;20467;-89
2021/11/11 18:00:17;;;;;;;42.97;25.30;;;11.70;53.50;;;;;;4845121;29;21140;-90
2021/11/11 18:15:47;;;;;;;45.53;24.97;;;10.60;50.70;;;;;;5033345;26;20588;-90
2021/11/11 18:18:15;;;;;;;52.17;29.40;;;11.50;54.00;;;;;;5037214;28;20452;-90
2021/11/11 18:20:43;;;;;;;38.53;22.33;;;12.30;52.80;;;;;;5038651;28;20965;-90
2021/11/11 18:23:11;;;;;;;62.50;35.33;;;12.80;52.60;;;;;;5036229;28;20480;-91
2021/11/11 18:25:38;;;;;;;60.37;35.37;;;12.80;47.20;;;;;;5035890;28;20805;-91
2021/11/11 18:28:06;;;;;;;53.60;32.67;;;12.10;46.90;;;;;;5037537;28;20481;-91
2021/11/11 18:30:38;;;;;;;40.20;23.83;;;11.50;47.90;;;;;;5037611;28;20582;-91
2021/11/11 18:33:09;;;;;;;38.53;21.53;;;11.90;53.20;;;;;;5038276;28;20463;-91
2021/11/11 18:35:41;;;;;;;40.27;22.87;;;12.00;53.60;;;;;;5038823;28;20893;-91
2021/11/11 18:38:11;;;;;;;51.57;30.00;;;12.10;52.20;;;;;;5040031;28;20483;-90
2021/11/11 18:40:39;;;;;;;61.20;34.60;;;11.70;47.50;;;;;;5041147;28;20913;-91
2021/11/11 18:43:06;;;;;;;39.97;23.07;;;11.10;48.40;;;;;;5037827;28;20457;-91
2021/11/11 18:45:35;;;;;;;56.47;29.00;;;11.50;54.10;;;;;;5039098;28;20589;-90
2021/11/11 18:48:22;;;;;;;65.63;35.13;;;11.90;50.40;;;;;;5037571;28;20504;-90
2021/11/11 18:50:53;;;;;;;71.23;37.97;;;11.90;50.60;;;;;;5040514;28;20830;-91
2021/11/11 18:53:22;;;;;;;55.10;28.70;;;10.80;48.90;;;;;;5045777;28;20462;-91
2021/11/11 18:55:50;;;;;;;60.60;36.37;;;10.80;52.80;;;;;;5055911;28;20472;-90
2021/11/11 18:58:17;;;;;;;55.73;23.53;;;10.70;48.40;;;;;;5056363;28;20457;-91
2021/11/11 19:00:45;;;;;;;68.30;37.10;;;10.40;53.90;;;;;;5044879;28;20433;-92
2021/11/11 19:03:12;;;;;;;71.30;38.00;;;10.10;49.70;;;;;;5036937;28;20474;-90
2021/11/11 19:08:38;;;;;;;44.73;25.23;;;10.40;55.40;;;;;;5042100;28;20478;-90
2021/11/11 19:11:41;;;;;;;69.47;30.90;;;10.90;54.70;;;;;;5037629;28;20457;-91
2021/11/11 19:14:22;;;;;;;54.60;31.13;;;11.30;54.90;;;;;;5037438;28;20476;-91
2021/11/11 19:23:03;;;;;;;40.10;24.30;;;10.80;52.10;;;;;;5008990;28;20509;-92
2021/11/11 19:26:13;;;;;;;42.77;22.67;;;11.30;52.60;;;;;;5013414;28;20540;-91
2021/11/11 19:29:37;;;;;;;;;;;;;;;;;;;;;
2021/11/11 19:35:46;;;;;;;55.93;30.43;;;12.40;52.00;;;;;;5077728;22;20478;-91
2021/11/11 19:38:56;;;;;;;66.53;38.77;;;12.60;49.90;;;;;;5061576;28;20446;-91
2021/11/11 19:58:44;;;;;;;43.50;25.87;;;10.50;56.20;;;;;;5020693;28;20440;-90
2021/11/11 20:01:23;;;;;;;34.57;19.30;;;11.30;53.50;;;;;;5027463;28;20442;-91
2021/11/11 20:04:20;;;;;;;33.33;20.67;;;11.80;54.90;;;;;;5024857;28;20473;-91
2021/11/11 20:09:42;;;;;;;32.10;20.43;;;12.50;53.30;;;;;;5041116;28;20437;-90
2021/11/11 20:12:25;;;;;;;43.93;21.00;;;12.80;52.10;;;;;;5044506;28;20491;-92
2021/11/11 20:15:01;;;;;;;38.10;22.20;;;12.90;50.00;;;;;;5047227;28;20473;-92
2021/11/11 20:18:04;;;;;;;43.07;26.33;;;12.80;52.80;;;;;;5047961;28;20475;-91
2021/11/11 20:20:50;;;;;;;56.80;32.13;;;12.70;50.10;;;;;;5046189;28;20556;-92
2021/11/11 20:37:14;;;;;;;54.47;29.53;;;10.20;55.20;;;;;;5024688;28;20429;-91
2021/11/11 20:42:50;;;;;;;88.30;44.90;;;10.50;50.00;;;;;;5034801;28;20433;-91
2021/11/11 20:45:41;;;;;;;87.73;43.07;;;9.50;50.10;;;;;;5023440;28;20485;-92
2021/11/11 21:02:02;;;;;;;224.07;42.10;;;10.00;52.90;;;;;;5025246;28;20471;-90
2021/11/11 21:04:31;;;;;;;161.17;43.00;;;9.80;50.30;;;;;;5023592;28;20488;-90
2021/11/11 21:07:03;;;;;;;95.23;43.13;;;9.30;53.20;;;;;;5022591;28;20561;-90
2021/11/11 21:09:46;;;;;;;101.40;36.37;;;9.10;51.90;;;;;;5033393;28;20510;-88
2021/11/11 21:12:20;;;;;;;105.33;44.37;;;9.10;52.90;;;;;;5039039;28;20588;-86
2021/11/11 21:14:52;;;;;;;172.70;46.37;;;9.20;52.50;;;;;;5031863;28;20470;-90
2021/11/11 21:17:34;;;;;;;104.63;45.40;;;8.90;51.10;;;;;;5026483;28;20469;-90
2021/11/11 21:20:06;;;;;;;134.17;45.57;;;8.80;53.20;;;;;;5023230;28;20442;-92
2021/11/11 21:22:34;;;;;;;107.80;36.50;;;8.80;53.20;;;;;;5026240;28;20458;-92
2021/11/11 21:25:01;;;;;;;183.93;45.93;;;9.10;55.90;;;;;;5025470;28;20453;-91
2021/11/11 21:27:31;;;;;;;161.03;42.20;;;9.40;53.80;;;;;;5023748;28;20473;-91
2021/11/11 21:30:00;;;;;;;175.97;44.60;;;9.10;52.30;;;;;;5023001;28;20438;-91
2021/11/11 21:32:30;;;;;;;190.37;43.33;;;8.90;52.20;;;;;;5022961;28;20501;-91
2021/11/11 21:35:10;;;;;;;221.47;43.37;;;8.40;52.80;;;;;;5021236;28;20481;-91
2021/11/11 21:37:44;;;;;;;168.83;42.57;;;8.30;53.80;;;;;;5025640;28;20442;-91
2021/11/11 21:40:14;;;;;;;188.27;44.63;;;7.60;55.50;;;;;;5023333;28;20961;-91
2021/11/11 21:42:45;;;;;;;116.00;37.10;;;7.90;55.20;;;;;;5026327;28;20435;-89
2021/11/11 21:45:14;;;;;;;165.57;40.77;;;7.90;57.80;;;;;;5023156;28;20439;-90
2021/11/11 21:47:42;;;;;;;154.53;41.40;;;8.40;55.00;;;;;;5026206;28;20486;-90
2021/11/11 21:50:12;;;;;;;210.50;42.27;;;9.00;55.50;;;;;;5027953;28;20451;-90
2021/11/11 21:52:43;;;;;;;197.43;44.50;;;8.70;52.60;;;;;;5028035;28;20461;-91
2021/11/11 21:55:20;;;;;;;185.13;44.20;;;8.30;52.40;;;;;;5024766;28;20818;-91
2021/11/11 21:58:02;;;;;;;223.77;42.23;;;7.60;52.50;;;;;;5024908;28;20454;-92
2021/11/11 22:00:34;;;;;;;171.90;42.17;;;7.40;53.50;;;;;;5025552;28;20457;-92
2021/11/11 22:03:11;;;;;;;184.07;42.10;;;7.40;54.00;;;;;;5024566;28;20532;-91
2021/11/11 22:24:54;;;;;;;131.23;43.00;;;7.20;54.50;;;;;;5049573;28;20787;-88
2021/11/11 22:27:35;;;;;;;143.33;43.10;;;7.20;54.90;;;;;;5054588;28;20507;-87
2021/11/11 22:30:18;;;;;;;142.33;44.40;;;7.20;54.90;;;;;;5054037;28;20446;-87
2021/11/11 22:32:46;;;;;;;138.23;41.67;;;6.90;55.00;;;;;;5054066;28;20470;-87
2021/11/11 22:35:13;;;;;;;134.80;42.00;;;6.90;55.40;;;;;;5055186;28;20448;-87
2021/11/11 22:37:40;;;;;;;173.57;40.33;;;7.00;55.00;;;;;;5053720;28;20535;-87
2021/11/11 22:40:10;;;;;;;177.47;42.60;;;7.00;54.80;;;;;;5053485;28;20458;-87
2021/11/11 22:42:38;;;;;;;112.30;41.17;;;7.00;55.40;;;;;;5053236;28;21031;-87
2021/11/11 22:45:06;;;;;;;172.17;41.07;;;6.80;55.10;;;;;;5053612;28;20481;-87
2021/11/11 22:47:33;;;;;;;117.13;41.53;;;6.70;55.10;;;;;;5053689;28;20840;-87
2021/11/11 22:50:03;;;;;;;157.67;44.10;;;6.90;55.70;;;;;;5053622;28;20450;-87
2021/11/11 22:52:30;;;;;;;118.03;42.63;;;6.80;55.80;;;;;;5053413;28;20483;-87
2021/11/11 22:55:02;;;;;;;165.27;42.13;;;7.10;56.10;;;;;;5052977;28;20476;-87
2021/11/11 22:57:35;;;;;;;111.63;41.73;;;6.70;55.40;;;;;;5054042;28;20513;-87
2021/11/11 23:00:18;;;;;;;129.53;43.00;;;6.70;55.30;;;;;;5053302;28;20428;-86
2021/11/11 23:02:49;;;;;;;126.93;47.77;;;6.60;54.90;;;;;;5057135;28;21021;-85
2021/11/11 23:05:40;;;;;;;70.33;30.77;;;7.40;60.70;;;;;;5052405;28;20444;-85
2021/11/11 23:08:30;;;;;;;194.23;42.50;;;8.10;59.60;;;;;;5052363;28;20595;-85
2021/11/11 23:11:06;;;;;;;119.93;40.27;;;8.30;52.90;;;;;;5052586;28;20524;-85
2021/11/11 23:16:33;;;;;;;81.53;36.43;;;7.80;53.60;;;;;;5052362;28;20419;-85
2021/11/11 23:33:09;;;;;;;141.17;33.10;;;7.50;53.50;;;;;;5052047;28;20975;-85
2021/11/11 23:35:37;;;;;;;96.70;31.97;;;7.90;56.60;;;;;;5051591;28;20526;-85
2021/11/11 23:38:06;;;;;;;93.03;30.20;;;8.00;53.30;;;;;;5052083;28;20953;-85
2021/11/11 23:40:34;;;;;;;80.93;31.70;;;8.20;55.90;;;;;;5052286;28;20433;-85
2021/11/11 23:43:01;;;;;;;109.67;30.47;;;8.70;55.10;;;;;;5052075;28;20514;-85
2021/11/11 23:45:30;;;;;;;80.63;30.13;;;9.10;54.30;;;;;;5051828;28;20927;-85
2021/11/11 23:48:04;;;;;;;99.93;31.17;;;9.20;52.80;;;;;;5052066;28;20538;-85
2021/11/11 23:50:51;;;;;;;52.50;23.90;;;9.10;52.10;;;;;;5051806;28;20507;-85
